sensor_id;sensor_type;location;lat;lon;timestamp;temperature;humidity
15879;DHT22;61999;51.514;14.614;2023-03-19T00:00:37;3.20;45.90
15879;DHT22;61999;51.514;14.614;2023-03-19T00:03:05;3.20;46.80
15879;DHT22;61999;51.514;14.614;2023-03-19T00:05:33;3.20;46.30
15879;DHT22;61999;51.514;14.614;2023-03-19T00:08:01;3.20;46.10
15879;DHT22;61999;51.514;14.614;2023-03-19T00:10:30;3.20;46.00
15879;DHT22;61999;51.514;14.614;2023-03-19T00:12:58;3.20;46.10
15879;DHT22;61999;51.514;14.614;2023-03-19T00:15:26;3.20;46.10
15879;DHT22;61999;51.514;14.614;2023-03-19T00:17:54;3.20;46.20
15879;DHT22;61999;51.514;14.614;2023-03-19T00:20:22;3.20;46.20
15879;DHT22;61999;51.514;14.614;2023-03-19T00:22:50;3.20;46.20
15879;DHT22;61999;51.514;14.614;2023-03-19T00:25:17;3.20;46.60
15879;DHT22;61999;51.514;14.614;2023-03-19T00:27:47;3.20;46.50
15879;DHT22;61999;51.514;14.614;2023-03-19T00:30:15;3.20;46.50
15879;DHT22;61999;51.514;14.614;2023-03-19T00:32:43;3.20;46.40
15879;DHT22;61999;51.514;14.614;2023-03-19T00:35:11;3.20;46.80
15879;DHT22;61999;51.514;14.614;2023-03-19T00:37:40;3.20;46.60
15879;DHT22;61999;51.514;14.614;2023-03-19T00:40:09;3.20;46.80
15879;DHT22;61999;51.514;14.614;2023-03-19T00:42:38;3.20;46.70
15879;DHT22;61999;51.514;14.614;2023-03-19T00:45:09;3.20;46.70
15879;DHT22;61999;51.514;14.614;2023-03-19T00:47:38;3.20;46.70
15879;DHT22;61999;51.514;14.614;2023-03-19T00:50:06;3.10;46.60
15879;DHT22;61999;51.514;14.614;2023-03-19T00:52:35;3.10;47.40
15879;DHT22;61999;51.514;14.614;2023-03-19T00:55:04;3.20;46.80
15879;DHT22;61999;51.514;14.614;2023-03-19T00:57:32;3.20;47.10
15879;DHT22;61999;51.514;14.614;2023-03-19T01:00:00;3.20;47.00
15879;DHT22;61999;51.514;14.614;2023-03-19T01:02:29;3.20;47.10
15879;DHT22;61999;51.514;14.614;2023-03-19T01:04:58;3.20;46.90
15879;DHT22;61999;51.514;14.614;2023-03-19T01:07:26;3.20;46.90
15879;DHT22;61999;51.514;14.614;2023-03-19T01:09:54;3.20;46.90
15879;DHT22;61999;51.514;14.614;2023-03-19T01:12:21;3.20;47.60
15879;DHT22;61999;51.514;14.614;2023-03-19T01:14:49;3.20;47.90
15879;DHT22;61999;51.514;14.614;2023-03-19T01:17:17;3.20;47.20
15879;DHT22;61999;51.514;14.614;2023-03-19T01:19:47;3.20;47.10
15879;DHT22;61999;51.514;14.614;2023-03-19T01:22:15;3.20;47.00
15879;DHT22;61999;51.514;14.614;2023-03-19T01:24:43;3.20;46.90
15879;DHT22;61999;51.514;14.614;2023-03-19T01:27:12;3.20;46.80
15879;DHT22;61999;51.514;14.614;2023-03-19T01:29:40;3.20;46.80
15879;DHT22;61999;51.514;14.614;2023-03-19T01:32:08;3.30;46.80
15879;DHT22;61999;51.514;14.614;2023-03-19T01:34:36;3.30;46.80
15879;DHT22;61999;51.514;14.614;2023-03-19T01:37:05;3.30;46.70
15879;DHT22;61999;51.514;14.614;2023-03-19T01:39:33;3.30;46.80
15879;DHT22;61999;51.514;14.614;2023-03-19T01:42:01;3.30;46.90
15879;DHT22;61999;51.514;14.614;2023-03-19T01:44:31;3.30;46.90
15879;DHT22;61999;51.514;14.614;2023-03-19T01:47:03;3.30;47.00
15879;DHT22;61999;51.514;14.614;2023-03-19T01:49:33;3.30;47.30
15879;DHT22;61999;51.514;14.614;2023-03-19T01:52:04;3.30;47.10
15879;DHT22;61999;51.514;14.614;2023-03-19T01:54:35;3.20;47.40
15879;DHT22;61999;51.514;14.614;2023-03-19T01:57:06;3.20;47.50
15879;DHT22;61999;51.514;14.614;2023-03-19T01:59:40;3.20;47.00
15879;DHT22;61999;51.514;14.614;2023-03-19T02:02:15;3.30;47.10
15879;DHT22;61999;51.514;14.614;2023-03-19T02:04:51;3.30;47.00
15879;DHT22;61999;51.514;14.614;2023-03-19T02:07:24;3.20;47.10
15879;DHT22;61999;51.514;14.614;2023-03-19T02:09:53;3.30;47.00
15879;DHT22;61999;51.514;14.614;2023-03-19T02:12:21;3.30;46.90
15879;DHT22;61999;51.514;14.614;2023-03-19T02:14:49;3.30;46.70
15879;DHT22;61999;51.514;14.614;2023-03-19T02:17:17;3.30;46.70
15879;DHT22;61999;51.514;14.614;2023-03-19T02:19:49;3.30;47.10
15879;DHT22;61999;51.514;14.614;2023-03-19T02:22:28;3.20;47.30
15879;DHT22;61999;51.514;14.614;2023-03-19T02:25:01;3.20;46.90
15879;DHT22;61999;51.514;14.614;2023-03-19T02:27:34;3.30;47.10
15879;DHT22;61999;51.514;14.614;2023-03-19T02:30:17;3.20;47.20
15879;DHT22;61999;51.514;14.614;2023-03-19T02:32:46;3.10;47.20
15879;DHT22;61999;51.514;14.614;2023-03-19T02:35:14;3.10;47.40
15879;DHT22;61999;51.514;14.614;2023-03-19T02:37:42;3.10;47.50
15879;DHT22;61999;51.514;14.614;2023-03-19T02:40:13;3.10;47.10
15879;DHT22;61999;51.514;14.614;2023-03-19T02:42:47;3.10;46.80
15879;DHT22;61999;51.514;14.614;2023-03-19T02:45:15;3.20;46.70
15879;DHT22;61999;51.514;14.614;2023-03-19T02:47:44;3.20;46.60
15879;DHT22;61999;51.514;14.614;2023-03-19T02:50:12;3.20;46.50
15879;DHT22;61999;51.514;14.614;2023-03-19T02:52:40;3.20;46.50
15879;DHT22;61999;51.514;14.614;2023-03-19T02:55:08;3.20;46.50
15879;DHT22;61999;51.514;14.614;2023-03-19T02:57:36;3.20;46.50
15879;DHT22;61999;51.514;14.614;2023-03-19T03:00:07;3.20;46.60
15879;DHT22;61999;51.514;14.614;2023-03-19T03:02:36;3.20;46.60
15879;DHT22;61999;51.514;14.614;2023-03-19T03:05:05;3.20;46.50
15879;DHT22;61999;51.514;14.614;2023-03-19T03:07:34;3.20;46.80
15879;DHT22;61999;51.514;14.614;2023-03-19T03:10:03;3.20;46.90
15879;DHT22;61999;51.514;14.614;2023-03-19T03:12:31;3.10;47.00
15879;DHT22;61999;51.514;14.614;2023-03-19T03:14:59;3.00;47.10
15879;DHT22;61999;51.514;14.614;2023-03-19T03:17:28;3.10;46.90
15879;DHT22;61999;51.514;14.614;2023-03-19T03:19:56;3.00;47.10
15879;DHT22;61999;51.514;14.614;2023-03-19T03:22:24;3.00;47.00
15879;DHT22;61999;51.514;14.614;2023-03-19T03:24:53;3.00;46.90
15879;DHT22;61999;51.514;14.614;2023-03-19T03:27:20;3.00;46.80
15879;DHT22;61999;51.514;14.614;2023-03-19T03:29:48;3.00;46.70
15879;DHT22;61999;51.514;14.614;2023-03-19T03:32:16;3.00;46.60
15879;DHT22;61999;51.514;14.614;2023-03-19T03:34:46;3.00;46.60
15879;DHT22;61999;51.514;14.614;2023-03-19T03:37:14;3.00;46.60
15879;DHT22;61999;51.514;14.614;2023-03-19T03:39:42;3.00;46.50
15879;DHT22;61999;51.514;14.614;2023-03-19T03:42:10;3.00;46.40
15879;DHT22;61999;51.514;14.614;2023-03-19T03:44:38;3.00;46.40
15879;DHT22;61999;51.514;14.614;2023-03-19T03:47:06;3.00;46.50
15879;DHT22;61999;51.514;14.614;2023-03-19T03:49:35;3.00;46.50
15879;DHT22;61999;51.514;14.614;2023-03-19T03:52:05;3.00;46.40
15879;DHT22;61999;51.514;14.614;2023-03-19T03:54:34;3.00;46.60
15879;DHT22;61999;51.514;14.614;2023-03-19T03:57:01;2.90;46.70
15879;DHT22;61999;51.514;14.614;2023-03-19T03:59:29;2.90;46.80
15879;DHT22;61999;51.514;14.614;2023-03-19T04:01:57;2.90;46.60
15879;DHT22;61999;51.514;14.614;2023-03-19T04:04:25;3.00;46.70
15879;DHT22;61999;51.514;14.614;2023-03-19T04:06:53;3.00;46.70
15879;DHT22;61999;51.514;14.614;2023-03-19T04:09:22;3.00;46.60
15879;DHT22;61999;51.514;14.614;2023-03-19T04:11:50;3.00;46.60
15879;DHT22;61999;51.514;14.614;2023-03-19T04:14:18;3.00;46.20
15879;DHT22;61999;51.514;14.614;2023-03-19T04:16:46;3.00;46.50
15879;DHT22;61999;51.514;14.614;2023-03-19T04:19:14;3.00;46.40
15879;DHT22;61999;51.514;14.614;2023-03-19T04:21:42;3.00;46.40
15879;DHT22;61999;51.514;14.614;2023-03-19T04:24:10;3.00;46.40
15879;DHT22;61999;51.514;14.614;2023-03-19T04:26:39;3.00;46.40
15879;DHT22;61999;51.514;14.614;2023-03-19T04:29:07;3.10;46.40
15879;DHT22;61999;51.514;14.614;2023-03-19T04:31:35;3.00;46.50
15879;DHT22;61999;51.514;14.614;2023-03-19T04:34:03;2.90;45.80
15879;DHT22;61999;51.514;14.614;2023-03-19T04:36:32;2.80;46.30
15879;DHT22;61999;51.514;14.614;2023-03-19T04:38:59;2.60;46.50
15879;DHT22;61999;51.514;14.614;2023-03-19T04:41:27;2.70;46.70
15879;DHT22;61999;51.514;14.614;2023-03-19T04:43:56;2.80;46.50
15879;DHT22;61999;51.514;14.614;2023-03-19T04:46:24;2.80;46.20
15879;DHT22;61999;51.514;14.614;2023-03-19T04:48:52;2.80;46.20
15879;DHT22;61999;51.514;14.614;2023-03-19T04:51:21;2.90;46.30
15879;DHT22;61999;51.514;14.614;2023-03-19T04:53:49;3.00;46.00
15879;DHT22;61999;51.514;14.614;2023-03-19T04:56:17;3.10;45.90
15879;DHT22;61999;51.514;14.614;2023-03-19T04:58:45;3.30;45.30
15879;DHT22;61999;51.514;14.614;2023-03-19T05:01:14;3.30;45.30
15879;DHT22;61999;51.514;14.614;2023-03-19T05:03:42;3.40;44.80
15879;DHT22;61999;51.514;14.614;2023-03-19T05:06:10;3.50;44.60
15879;DHT22;61999;51.514;14.614;2023-03-19T05:08:38;3.60;44.40
15879;DHT22;61999;51.514;14.614;2023-03-19T05:11:06;3.60;44.00
15879;DHT22;61999;51.514;14.614;2023-03-19T05:13:34;3.60;44.20
15879;DHT22;61999;51.514;14.614;2023-03-19T05:16:02;3.60;44.20
15879;DHT22;61999;51.514;14.614;2023-03-19T05:18:32;3.60;44.10
15879;DHT22;61999;51.514;14.614;2023-03-19T05:21:00;3.70;43.90
15879;DHT22;61999;51.514;14.614;2023-03-19T05:23:30;3.80;43.80
15879;DHT22;61999;51.514;14.614;2023-03-19T05:25:58;3.70;44.00
15879;DHT22;61999;51.514;14.614;2023-03-19T05:28:26;3.70;44.10
15879;DHT22;61999;51.514;14.614;2023-03-19T05:30:55;3.60;44.20
15879;DHT22;61999;51.514;14.614;2023-03-19T05:33:23;3.50;44.40
15879;DHT22;61999;51.514;14.614;2023-03-19T05:35:52;3.50;44.60
15879;DHT22;61999;51.514;14.614;2023-03-19T05:38:23;3.40;44.50
15879;DHT22;61999;51.514;14.614;2023-03-19T05:40:51;3.40;44.70
15879;DHT22;61999;51.514;14.614;2023-03-19T05:43:19;3.40;44.90
15879;DHT22;61999;51.514;14.614;2023-03-19T05:45:49;3.40;45.10
15879;DHT22;61999;51.514;14.614;2023-03-19T05:48:18;3.30;46.30
15879;DHT22;61999;51.514;14.614;2023-03-19T05:50:46;3.10;45.80
15879;DHT22;61999;51.514;14.614;2023-03-19T05:53:16;3.10;45.70
15879;DHT22;61999;51.514;14.614;2023-03-19T05:55:43;3.10;45.70
15879;DHT22;61999;51.514;14.614;2023-03-19T05:58:11;3.20;45.70
15879;DHT22;61999;51.514;14.614;2023-03-19T06:00:39;3.30;45.80
15879;DHT22;61999;51.514;14.614;2023-03-19T06:03:07;3.40;45.70
15879;DHT22;61999;51.514;14.614;2023-03-19T06:05:35;3.30;45.60
15879;DHT22;61999;51.514;14.614;2023-03-19T06:08:04;3.40;45.60
15879;DHT22;61999;51.514;14.614;2023-03-19T06:10:34;3.40;45.60
15879;DHT22;61999;51.514;14.614;2023-03-19T06:13:02;3.50;45.60
15879;DHT22;61999;51.514;14.614;2023-03-19T06:15:31;3.60;45.70
15879;DHT22;61999;51.514;14.614;2023-03-19T06:17:59;3.60;45.60
15879;DHT22;61999;51.514;14.614;2023-03-19T06:20:27;3.70;45.70
15879;DHT22;61999;51.514;14.614;2023-03-19T06:22:55;3.70;45.60
15879;DHT22;61999;51.514;14.614;2023-03-19T06:25:23;3.80;45.70
15879;DHT22;61999;51.514;14.614;2023-03-19T06:27:52;3.90;45.60
15879;DHT22;61999;51.514;14.614;2023-03-19T06:30:20;3.70;44.80
15879;DHT22;61999;51.514;14.614;2023-03-19T06:32:48;3.80;45.30
15879;DHT22;61999;51.514;14.614;2023-03-19T06:35:16;3.80;44.80
15879;DHT22;61999;51.514;14.614;2023-03-19T06:37:44;3.80;44.90
15879;DHT22;61999;51.514;14.614;2023-03-19T06:40:13;3.80;45.10
15879;DHT22;61999;51.514;14.614;2023-03-19T06:42:43;3.90;44.70
15879;DHT22;61999;51.514;14.614;2023-03-19T06:45:14;3.90;45.30
15879;DHT22;61999;51.514;14.614;2023-03-19T06:47:45;4.00;45.20
15879;DHT22;61999;51.514;14.614;2023-03-19T06:50:14;4.00;44.20
15879;DHT22;61999;51.514;14.614;2023-03-19T06:52:43;3.90;44.20
15879;DHT22;61999;51.514;14.614;2023-03-19T06:55:12;4.00;44.70
15879;DHT22;61999;51.514;14.614;2023-03-19T06:57:40;4.00;44.10
15879;DHT22;61999;51.514;14.614;2023-03-19T07:00:08;4.10;44.20
15879;DHT22;61999;51.514;14.614;2023-03-19T07:02:39;4.20;44.70
15879;DHT22;61999;51.514;14.614;2023-03-19T07:05:08;4.40;44.50
15879;DHT22;61999;51.514;14.614;2023-03-19T07:07:36;4.50;44.50
15879;DHT22;61999;51.514;14.614;2023-03-19T07:10:04;4.60;44.20
15879;DHT22;61999;51.514;14.614;2023-03-19T07:12:33;4.50;43.50
15879;DHT22;61999;51.514;14.614;2023-03-19T07:15:01;4.60;43.90
15879;DHT22;61999;51.514;14.614;2023-03-19T07:17:30;4.90;43.60
15879;DHT22;61999;51.514;14.614;2023-03-19T07:19:59;5.10;43.10
15879;DHT22;61999;51.514;14.614;2023-03-19T07:22:27;5.20;43.50
15879;DHT22;61999;51.514;14.614;2023-03-19T07:24:55;5.30;43.10
15879;DHT22;61999;51.514;14.614;2023-03-19T07:27:23;5.50;42.80
15879;DHT22;61999;51.514;14.614;2023-03-19T07:29:51;5.60;42.20
15879;DHT22;61999;51.514;14.614;2023-03-19T07:32:21;5.70;42.70
15879;DHT22;61999;51.514;14.614;2023-03-19T07:34:49;5.90;42.40
15879;DHT22;61999;51.514;14.614;2023-03-19T07:37:19;6.10;41.50
15879;DHT22;61999;51.514;14.614;2023-03-19T07:39:48;6.40;40.90
15879;DHT22;61999;51.514;14.614;2023-03-19T07:42:16;6.40;41.30
15879;DHT22;61999;51.514;14.614;2023-03-19T07:44:44;6.50;41.20
15879;DHT22;61999;51.514;14.614;2023-03-19T07:47:11;6.70;40.90
15879;DHT22;61999;51.514;14.614;2023-03-19T07:49:53;6.90;40.20
15879;DHT22;61999;51.514;14.614;2023-03-19T07:52:23;7.20;39.50
15879;DHT22;61999;51.514;14.614;2023-03-19T07:54:51;7.40;39.00
15879;DHT22;61999;51.514;14.614;2023-03-19T07:57:19;7.50;38.70
15879;DHT22;61999;51.514;14.614;2023-03-19T07:59:48;7.50;37.80
15879;DHT22;61999;51.514;14.614;2023-03-19T08:02:16;7.40;39.20
15879;DHT22;61999;51.514;14.614;2023-03-19T08:04:46;7.40;39.60
15879;DHT22;61999;51.514;14.614;2023-03-19T08:07:14;7.70;39.10
15879;DHT22;61999;51.514;14.614;2023-03-19T08:09:43;7.60;39.20
15879;DHT22;61999;51.514;14.614;2023-03-19T08:12:12;7.90;39.20
15879;DHT22;61999;51.514;14.614;2023-03-19T08:14:40;8.50;37.10
15879;DHT22;61999;51.514;14.614;2023-03-19T08:17:08;8.80;36.30
15879;DHT22;61999;51.514;14.614;2023-03-19T08:19:36;8.80;36.10
15879;DHT22;61999;51.514;14.614;2023-03-19T08:22:04;8.90;35.60
15879;DHT22;61999;51.514;14.614;2023-03-19T08:24:32;8.80;36.10
15879;DHT22;61999;51.514;14.614;2023-03-19T08:27:02;8.70;35.90
15879;DHT22;61999;51.514;14.614;2023-03-19T08:29:30;8.70;36.30
15879;DHT22;61999;51.514;14.614;2023-03-19T08:31:58;8.60;36.50
15879;DHT22;61999;51.514;14.614;2023-03-19T08:34:26;8.50;37.40
15879;DHT22;61999;51.514;14.614;2023-03-19T08:36:54;8.40;37.20
15879;DHT22;61999;51.514;14.614;2023-03-19T08:39:22;8.20;37.20
15879;DHT22;61999;51.514;14.614;2023-03-19T08:41:50;8.20;37.10
15879;DHT22;61999;51.514;14.614;2023-03-19T08:44:19;8.30;38.00
15879;DHT22;61999;51.514;14.614;2023-03-19T08:46:47;8.40;36.60
15879;DHT22;61999;51.514;14.614;2023-03-19T08:49:15;8.50;37.80
15879;DHT22;61999;51.514;14.614;2023-03-19T08:51:43;8.40;36.60
15879;DHT22;61999;51.514;14.614;2023-03-19T08:54:11;8.50;37.90
15879;DHT22;61999;51.514;14.614;2023-03-19T08:56:39;8.60;36.50
15879;DHT22;61999;51.514;14.614;2023-03-19T08:59:07;8.80;37.10
15879;DHT22;61999;51.514;14.614;2023-03-19T09:01:36;9.20;36.30
15879;DHT22;61999;51.514;14.614;2023-03-19T09:04:04;9.50;35.90
15879;DHT22;61999;51.514;14.614;2023-03-19T09:06:32;9.60;36.10
15879;DHT22;61999;51.514;14.614;2023-03-19T09:09:00;9.50;35.20
15879;DHT22;61999;51.514;14.614;2023-03-19T09:11:28;9.20;36.10
15879;DHT22;61999;51.514;14.614;2023-03-19T09:13:56;9.60;36.40
15879;DHT22;61999;51.514;14.614;2023-03-19T09:16:24;9.40;35.80
15879;DHT22;61999;51.514;14.614;2023-03-19T09:18:53;9.30;36.20
15879;DHT22;61999;51.514;14.614;2023-03-19T09:21:24;9.20;36.80
15879;DHT22;61999;51.514;14.614;2023-03-19T09:23:52;9.20;36.20
15879;DHT22;61999;51.514;14.614;2023-03-19T09:26:20;9.10;35.90
15879;DHT22;61999;51.514;14.614;2023-03-19T09:28:48;9.20;36.30
15879;DHT22;61999;51.514;14.614;2023-03-19T09:31:17;9.30;36.40
15879;DHT22;61999;51.514;14.614;2023-03-19T09:33:45;9.50;37.00
15879;DHT22;61999;51.514;14.614;2023-03-19T09:36:14;9.70;36.40
15879;DHT22;61999;51.514;14.614;2023-03-19T09:38:42;9.80;36.40
15879;DHT22;61999;51.514;14.614;2023-03-19T09:41:15;9.70;35.50
15879;DHT22;61999;51.514;14.614;2023-03-19T09:43:57;9.50;36.20
15879;DHT22;61999;51.514;14.614;2023-03-19T09:46:36;9.50;36.30
15879;DHT22;61999;51.514;14.614;2023-03-19T09:49:15;9.50;36.60
15879;DHT22;61999;51.514;14.614;2023-03-19T09:51:52;9.70;37.10
15879;DHT22;61999;51.514;14.614;2023-03-19T09:54:29;9.70;35.90
15879;DHT22;61999;51.514;14.614;2023-03-19T09:56:59;9.90;36.40
15879;DHT22;61999;51.514;14.614;2023-03-19T09:59:28;9.80;35.70
15879;DHT22;61999;51.514;14.614;2023-03-19T10:02:02;10.00;35.60
15879;DHT22;61999;51.514;14.614;2023-03-19T10:05:00;10.20;36.40
15879;DHT22;61999;51.514;14.614;2023-03-19T10:07:46;10.40;36.10
15879;DHT22;61999;51.514;14.614;2023-03-19T10:13:25;11.10;35.20
15879;DHT22;61999;51.514;14.614;2023-03-19T10:16:04;11.00;34.80
15879;DHT22;61999;51.514;14.614;2023-03-19T10:18:43;10.80;34.30
15879;DHT22;61999;51.514;14.614;2023-03-19T10:21:19;11.00;34.50
15879;DHT22;61999;51.514;14.614;2023-03-19T10:23:56;11.40;34.30
15879;DHT22;61999;51.514;14.614;2023-03-19T10:26:30;11.60;34.00
15879;DHT22;61999;51.514;14.614;2023-03-19T10:29:05;11.60;34.50
15879;DHT22;61999;51.514;14.614;2023-03-19T10:31:49;11.60;34.90
15879;DHT22;61999;51.514;14.614;2023-03-19T10:34:28;12.00;33.60
15879;DHT22;61999;51.514;14.614;2023-03-19T10:37:02;12.20;33.30
15879;DHT22;61999;51.514;14.614;2023-03-19T10:39:35;12.40;32.50
15879;DHT22;61999;51.514;14.614;2023-03-19T10:42:18;12.20;33.20
15879;DHT22;61999;51.514;14.614;2023-03-19T10:45:02;12.40;32.50
15879;DHT22;61999;51.514;14.614;2023-03-19T10:47:38;12.50;32.70
15879;DHT22;61999;51.514;14.614;2023-03-19T10:50:14;12.70;32.20
15879;DHT22;61999;51.514;14.614;2023-03-19T10:52:47;12.60;32.10
15879;DHT22;61999;51.514;14.614;2023-03-19T10:55:23;12.50;32.10
15879;DHT22;61999;51.514;14.614;2023-03-19T10:58:00;12.50;33.50
15879;DHT22;61999;51.514;14.614;2023-03-19T11:00:32;12.50;32.20
15879;DHT22;61999;51.514;14.614;2023-03-19T11:03:01;12.50;32.50
15879;DHT22;61999;51.514;14.614;2023-03-19T11:05:32;12.80;32.10
15879;DHT22;61999;51.514;14.614;2023-03-19T11:08:03;12.90;32.30
15879;DHT22;61999;51.514;14.614;2023-03-19T11:10:35;12.70;32.50
15879;DHT22;61999;51.514;14.614;2023-03-19T11:13:05;13.20;31.00
15879;DHT22;61999;51.514;14.614;2023-03-19T11:15:46;13.10;31.30
15879;DHT22;61999;51.514;14.614;2023-03-19T11:18:18;12.80;32.20
15879;DHT22;61999;51.514;14.614;2023-03-19T11:20:51;12.60;32.40
15879;DHT22;61999;51.514;14.614;2023-03-19T11:23:26;12.70;32.40
15879;DHT22;61999;51.514;14.614;2023-03-19T11:25:59;12.60;32.50
15879;DHT22;61999;51.514;14.614;2023-03-19T11:28:28;12.60;32.80
15879;DHT22;61999;51.514;14.614;2023-03-19T11:31:03;12.60;33.00
15879;DHT22;61999;51.514;14.614;2023-03-19T11:36:52;12.60;32.90
15879;DHT22;61999;51.514;14.614;2023-03-19T11:39:32;12.70;33.00
15879;DHT22;61999;51.514;14.614;2023-03-19T11:42:33;12.80;32.90
15879;DHT22;61999;51.514;14.614;2023-03-19T11:45:19;12.80;32.70
15879;DHT22;61999;51.514;14.614;2023-03-19T11:48:00;13.00;32.60
15879;DHT22;61999;51.514;14.614;2023-03-19T11:50:42;12.60;33.00
15879;DHT22;61999;51.514;14.614;2023-03-19T11:53:23;12.60;33.20
15879;DHT22;61999;51.514;14.614;2023-03-19T11:56:04;12.60;33.20
15879;DHT22;61999;51.514;14.614;2023-03-19T11:59:09;12.50;33.20
15879;DHT22;61999;51.514;14.614;2023-03-19T12:02:19;12.40;33.80
15879;DHT22;61999;51.514;14.614;2023-03-19T12:05:17;12.40;34.00
15879;DHT22;61999;51.514;14.614;2023-03-19T12:08:01;12.80;33.10
15879;DHT22;61999;51.514;14.614;2023-03-19T12:10:43;13.00;33.10
15879;DHT22;61999;51.514;14.614;2023-03-19T12:13:32;13.00;33.20
15879;DHT22;61999;51.514;14.614;2023-03-19T12:16:17;13.00;33.40
15879;DHT22;61999;51.514;14.614;2023-03-19T12:19:09;12.90;33.70
15879;DHT22;61999;51.514;14.614;2023-03-19T12:21:57;12.90;33.60
15879;DHT22;61999;51.514;14.614;2023-03-19T12:24:46;12.90;33.60
15879;DHT22;61999;51.514;14.614;2023-03-19T12:27:31;13.00;33.20
15879;DHT22;61999;51.514;14.614;2023-03-19T12:30:15;13.10;33.40
15879;DHT22;61999;51.514;14.614;2023-03-19T12:33:02;13.30;32.70
15879;DHT22;61999;51.514;14.614;2023-03-19T12:35:42;13.20;33.00
15879;DHT22;61999;51.514;14.614;2023-03-19T12:38:18;13.10;33.20
15879;DHT22;61999;51.514;14.614;2023-03-19T12:40:53;13.10;32.80
15879;DHT22;61999;51.514;14.614;2023-03-19T12:43:31;13.30;33.00
15879;DHT22;61999;51.514;14.614;2023-03-19T12:46:08;13.50;32.40
15879;DHT22;61999;51.514;14.614;2023-03-19T12:48:43;13.50;32.30
15879;DHT22;61999;51.514;14.614;2023-03-19T12:51:19;13.20;32.90
15879;DHT22;61999;51.514;14.614;2023-03-19T12:53:54;13.10;33.50
15879;DHT22;61999;51.514;14.614;2023-03-19T12:56:30;13.20;33.60
15879;DHT22;61999;51.514;14.614;2023-03-19T12:59:08;13.30;33.50
15879;DHT22;61999;51.514;14.614;2023-03-19T13:01:47;13.30;33.60
15879;DHT22;61999;51.514;14.614;2023-03-19T13:04:21;13.40;33.10
15879;DHT22;61999;51.514;14.614;2023-03-19T13:06:57;13.50;33.10
15879;DHT22;61999;51.514;14.614;2023-03-19T13:09:33;13.40;33.40
15879;DHT22;61999;51.514;14.614;2023-03-19T13:12:10;13.40;32.90
15879;DHT22;61999;51.514;14.614;2023-03-19T13:14:50;13.40;33.00
15879;DHT22;61999;51.514;14.614;2023-03-19T13:17:29;13.40;33.40
15879;DHT22;61999;51.514;14.614;2023-03-19T13:20:12;13.50;33.20
15879;DHT22;61999;51.514;14.614;2023-03-19T13:22:49;13.60;32.70
15879;DHT22;61999;51.514;14.614;2023-03-19T13:25:26;13.90;32.00
15879;DHT22;61999;51.514;14.614;2023-03-19T13:27:58;13.90;31.90
15879;DHT22;61999;51.514;14.614;2023-03-19T13:30:27;13.60;32.20
15879;DHT22;61999;51.514;14.614;2023-03-19T13:33:01;13.30;32.70
15879;DHT22;61999;51.514;14.614;2023-03-19T13:35:36;13.10;33.10
15879;DHT22;61999;51.514;14.614;2023-03-19T13:38:16;13.10;33.20
15879;DHT22;61999;51.514;14.614;2023-03-19T13:40:48;13.10;33.80
15879;DHT22;61999;51.514;14.614;2023-03-19T13:43:22;13.10;33.40
15879;DHT22;61999;51.514;14.614;2023-03-19T13:46:34;12.90;33.50
15879;DHT22;61999;51.514;14.614;2023-03-19T13:49:26;12.70;33.90
15879;DHT22;61999;51.514;14.614;2023-03-19T13:52:45;12.80;34.30
15879;DHT22;61999;51.514;14.614;2023-03-19T13:55:29;12.90;34.50
15879;DHT22;61999;51.514;14.614;2023-03-19T13:58:22;12.80;34.10
15879;DHT22;61999;51.514;14.614;2023-03-19T14:01:11;12.70;34.30
15879;DHT22;61999;51.514;14.614;2023-03-19T14:04:03;12.80;34.40
15879;DHT22;61999;51.514;14.614;2023-03-19T14:06:35;13.00;33.80
15879;DHT22;61999;51.514;14.614;2023-03-19T14:09:31;12.90;33.80
15879;DHT22;61999;51.514;14.614;2023-03-19T14:12:24;12.80;34.20
15879;DHT22;61999;51.514;14.614;2023-03-19T14:15:00;12.70;34.40
15879;DHT22;61999;51.514;14.614;2023-03-19T14:17:33;12.90;34.30
15879;DHT22;61999;51.514;14.614;2023-03-19T14:20:19;12.80;34.70
15879;DHT22;61999;51.514;14.614;2023-03-19T14:23:17;12.80;34.50
15879;DHT22;61999;51.514;14.614;2023-03-19T14:26:14;12.80;34.70
15879;DHT22;61999;51.514;14.614;2023-03-19T14:28:57;12.80;34.50
15879;DHT22;61999;51.514;14.614;2023-03-19T14:31:33;12.70;34.60
15879;DHT22;61999;51.514;14.614;2023-03-19T14:34:19;12.80;34.60
15879;DHT22;61999;51.514;14.614;2023-03-19T14:36:56;12.80;34.50
15879;DHT22;61999;51.514;14.614;2023-03-19T14:39:30;12.90;34.50
15879;DHT22;61999;51.514;14.614;2023-03-19T14:42:05;12.80;34.50
15879;DHT22;61999;51.514;14.614;2023-03-19T14:47:55;13.00;34.20
15879;DHT22;61999;51.514;14.614;2023-03-19T14:51:07;13.00;34.10
15879;DHT22;61999;51.514;14.614;2023-03-19T14:53:48;12.90;34.20
15879;DHT22;61999;51.514;14.614;2023-03-19T14:56:23;13.00;34.00
15879;DHT22;61999;51.514;14.614;2023-03-19T14:58:56;13.00;34.20
15879;DHT22;61999;51.514;14.614;2023-03-19T15:01:30;13.10;33.90
15879;DHT22;61999;51.514;14.614;2023-03-19T15:04:01;13.10;34.10
15879;DHT22;61999;51.514;14.614;2023-03-19T15:06:35;13.00;34.30
15879;DHT22;61999;51.514;14.614;2023-03-19T15:09:06;12.90;34.10
15879;DHT22;61999;51.514;14.614;2023-03-19T15:15:33;12.60;34.60
15879;DHT22;61999;51.514;14.614;2023-03-19T15:18:08;12.50;34.60
15879;DHT22;61999;51.514;14.614;2023-03-19T15:20:40;12.30;34.80
15879;DHT22;61999;51.514;14.614;2023-03-19T15:23:12;12.30;35.10
15879;DHT22;61999;51.514;14.614;2023-03-19T15:25:54;12.30;35.20
15879;DHT22;61999;51.514;14.614;2023-03-19T15:28:24;12.10;35.30
15879;DHT22;61999;51.514;14.614;2023-03-19T15:30:57;12.00;35.60
15879;DHT22;61999;51.514;14.614;2023-03-19T15:33:39;11.90;36.00
15879;DHT22;61999;51.514;14.614;2023-03-19T15:36:15;11.80;35.90
15879;DHT22;61999;51.514;14.614;2023-03-19T15:38:49;11.80;35.90
15879;DHT22;61999;51.514;14.614;2023-03-19T15:41:22;11.80;36.10
15879;DHT22;61999;51.514;14.614;2023-03-19T15:43:52;11.70;36.00
15879;DHT22;61999;51.514;14.614;2023-03-19T15:46:26;11.70;36.00
15879;DHT22;61999;51.514;14.614;2023-03-19T15:49:02;11.70;36.20
15879;DHT22;61999;51.514;14.614;2023-03-19T15:51:33;11.60;36.20
15879;DHT22;61999;51.514;14.614;2023-03-19T15:54:02;11.50;36.40
15879;DHT22;61999;51.514;14.614;2023-03-19T15:56:32;11.50;36.90
15879;DHT22;61999;51.514;14.614;2023-03-19T15:59:02;11.40;36.60
15879;DHT22;61999;51.514;14.614;2023-03-19T16:01:32;11.40;36.80
15879;DHT22;61999;51.514;14.614;2023-03-19T16:04:04;11.40;36.80
15879;DHT22;61999;51.514;14.614;2023-03-19T16:06:36;11.40;36.70
15879;DHT22;61999;51.514;14.614;2023-03-19T16:09:16;11.40;36.80
15879;DHT22;61999;51.514;14.614;2023-03-19T16:11:50;11.30;37.00